Terminal Aerodrome Forecast
Issued by NWS Pittsburgh, PA

Current Version | Previous Version | Text Only | Print | Product List | Glossary Off
Versions: 1 2 3 4 5 6 7 8 9 10 11 12 13 14 15 16 17 18 19 20 21 22 23 24 25 26 27 28 29

542
FTUS41 KPBZ 242336
TAFPIT
TAF
KPIT 242336Z 2500/2606 11009KT P6SM VCSH OVC080
     FM250400 10008KT P6SM OVC050
     FM260200 09007KT P6SM SCT030=

USA.gov is the U.S. government's official web portal to all federal, state and local government web resources and services.